createdAt,value
2023-04-11T00:00:20.884Z,11.50
2023-04-11T00:03:07.345Z,11.40
2023-04-11T00:05:52.902Z,11.50
2023-04-11T00:08:38.550Z,11.40
2023-04-11T00:11:24.378Z,11.30
2023-04-11T00:14:12.512Z,11.30
2023-04-11T00:17:01.063Z,11.20
2023-04-11T00:19:47.076Z,11.10
2023-04-11T00:22:33.606Z,11.10
2023-04-11T00:25:19.092Z,11.10
2023-04-11T00:28:04.872Z,11.10
2023-04-11T00:30:51.188Z,11.10
2023-04-11T00:33:40.444Z,11.00
2023-04-11T00:36:27.135Z,11.10
2023-04-11T00:39:13.297Z,11.10
2023-04-11T00:42:08.753Z,11.10
2023-04-11T00:44:54.290Z,11.10
2023-04-11T00:47:42.782Z,11.10
2023-04-11T00:50:29.367Z,11.10
2023-04-11T00:53:15.527Z,11.10
2023-04-11T00:56:01.462Z,11.20
2023-04-11T00:58:47.045Z,11.10
2023-04-11T01:01:36.460Z,11.10
2023-04-11T01:04:22.509Z,11.00
2023-04-11T01:07:08.613Z,11.00
2023-04-11T01:09:54.382Z,11.00
2023-04-11T01:12:40.633Z,11.00
2023-04-11T01:15:26.266Z,11.00
2023-04-11T01:18:12.178Z,11.00
2023-04-11T01:20:57.978Z,10.90
2023-04-11T01:23:43.491Z,10.90
2023-04-11T01:26:29.789Z,11.00
2023-04-11T01:29:15.795Z,11.00
2023-04-11T01:32:01.441Z,11.00
2023-04-11T01:34:47.869Z,10.90
2023-04-11T01:37:33.883Z,10.90
2023-04-11T01:40:21.458Z,10.90
2023-04-11T01:43:09.430Z,10.90
2023-04-11T01:45:55.215Z,10.90
2023-04-11T01:48:41.319Z,10.90
2023-04-11T01:51:27.405Z,10.70
2023-04-11T01:54:13.023Z,10.60
2023-04-11T01:56:58.731Z,10.60
2023-04-11T01:59:44.593Z,10.60
2023-04-11T02:02:30.405Z,10.70
2023-04-11T02:05:15.924Z,10.80
2023-04-11T02:08:01.498Z,10.80
2023-04-11T02:10:47.356Z,10.80
2023-04-11T02:13:32.901Z,10.90
2023-04-11T02:16:20.731Z,10.90
2023-04-11T02:19:06.471Z,10.90
2023-04-11T02:21:52.173Z,10.90
2023-04-11T02:24:38.531Z,11.00
2023-04-11T02:27:23.970Z,11.00
2023-04-11T02:30:09.991Z,11.00
2023-04-11T02:32:55.571Z,11.10
2023-04-11T02:35:42.501Z,11.10
2023-04-11T02:38:28.036Z,11.10
2023-04-11T02:41:13.889Z,11.10
2023-04-11T02:43:59.480Z,11.20
2023-04-11T02:46:45.521Z,11.20
2023-04-11T02:49:31.228Z,11.10
2023-04-11T02:52:19.111Z,11.00
2023-04-11T02:55:05.100Z,11.10
2023-04-11T02:57:52.750Z,11.00
2023-04-11T03:00:39.694Z,11.00
2023-04-11T03:03:27.929Z,11.00
2023-04-11T03:06:14.060Z,11.00
2023-04-11T03:09:01.639Z,11.00
2023-04-11T03:11:47.519Z,11.10
2023-04-11T03:14:33.965Z,11.20
2023-04-11T03:17:20.260Z,11.20
2023-04-11T03:20:08.029Z,11.10
2023-04-11T03:22:53.895Z,11.10
2023-04-11T03:25:40.593Z,11.10
2023-04-11T03:28:27.450Z,11.10
2023-04-11T03:31:13.692Z,11.20
2023-04-11T03:33:59.329Z,11.20
2023-04-11T03:36:45.410Z,11.20
2023-04-11T03:39:31.122Z,11.30
2023-04-11T03:42:18.476Z,11.30
2023-04-11T03:45:07.897Z,11.40
2023-04-11T03:47:54.230Z,11.40
2023-04-11T03:50:43.879Z,11.40
2023-04-11T03:53:31.145Z,11.40
2023-04-11T03:56:23.314Z,11.40
2023-04-11T03:59:09.303Z,11.30
2023-04-11T04:02:15.979Z,11.40
2023-04-11T04:05:07.100Z,11.30
2023-04-11T04:07:55.988Z,11.30
2023-04-11T04:10:54.812Z,11.30
2023-04-11T04:13:40.606Z,11.20
2023-04-11T04:16:35.995Z,11.20
2023-04-11T04:19:24.821Z,11.20
2023-04-11T04:22:11.903Z,11.10
2023-04-11T04:25:01.861Z,11.10
2023-04-11T04:27:54.204Z,11.20
2023-04-11T04:30:42.165Z,11.20
2023-04-11T04:33:33.143Z,11.20
2023-04-11T04:36:25.103Z,11.20
2023-04-11T04:39:11.327Z,11.30
2023-04-11T04:42:04.284Z,11.20
2023-04-11T04:44:57.216Z,11.20
2023-04-11T04:47:43.054Z,11.10
2023-04-11T04:50:29.372Z,11.20
2023-04-11T04:53:15.397Z,11.20
2023-04-11T04:56:06.642Z,11.20
2023-04-11T04:58:57.172Z,11.20
2023-04-11T05:01:43.506Z,11.10
2023-04-11T05:04:30.494Z,11.10
2023-04-11T05:07:18.354Z,11.10
2023-04-11T05:10:08.649Z,11.20
2023-04-11T05:12:56.078Z,11.20
2023-04-11T05:15:47.183Z,11.20
2023-04-11T05:18:33.070Z,11.20
2023-04-11T05:21:18.792Z,11.20
2023-04-11T05:24:08.748Z,11.20
2023-04-11T05:26:56.709Z,11.30
2023-04-11T05:29:42.593Z,11.30
2023-04-11T05:32:29.376Z,11.20
2023-04-11T05:35:15.206Z,11.20
2023-04-11T05:38:04.738Z,11.10
2023-04-11T05:40:50.344Z,11.10
2023-04-11T05:43:36.411Z,11.10
2023-04-11T05:46:22.510Z,11.10
2023-04-11T05:49:08.116Z,11.10
2023-04-11T05:51:53.960Z,11.10
2023-04-11T05:54:39.719Z,11.10
2023-04-11T05:57:25.539Z,11.10
2023-04-11T06:00:16.535Z,11.20
2023-04-11T06:03:02.658Z,11.30
2023-04-11T06:05:48.340Z,11.40
2023-04-11T06:08:34.451Z,11.50
2023-04-11T06:11:19.952Z,11.40
2023-04-11T06:14:05.998Z,11.50
2023-04-11T06:16:51.625Z,11.50
2023-04-11T06:19:37.524Z,11.50
2023-04-11T06:22:23.316Z,11.50
2023-04-11T06:25:09.148Z,11.60
2023-04-11T06:27:54.893Z,11.60
2023-04-11T06:30:41.530Z,11.80
2023-04-11T06:33:26.955Z,11.90
2023-04-11T06:36:12.795Z,12.00
2023-04-11T06:38:58.571Z,12.20
2023-04-11T06:41:44.505Z,12.30
2023-04-11T06:44:34.670Z,12.40
2023-04-11T06:47:20.756Z,12.60
2023-04-11T06:50:06.648Z,12.90
2023-04-11T06:52:52.850Z,13.00
2023-04-11T06:55:41.545Z,13.30
2023-04-11T06:58:37.376Z,13.50
2023-04-11T07:01:30.736Z,13.70
2023-04-11T07:04:16.719Z,14.10
2023-04-11T07:07:02.295Z,15.30
2023-04-11T07:09:48.271Z,14.90
2023-04-11T07:12:33.753Z,15.10
2023-04-11T07:15:19.454Z,15.40
2023-04-11T07:18:05.444Z,15.50
2023-04-11T07:20:52.569Z,15.50
2023-04-11T07:23:38.504Z,15.30
2023-04-11T07:26:24.260Z,15.60
2023-04-11T07:29:11.629Z,15.50
2023-04-11T07:31:58.728Z,15.60
2023-04-11T07:34:44.510Z,15.70
2023-04-11T07:37:31.021Z,15.90
2023-04-11T07:40:17.939Z,16.20
2023-04-11T07:43:03.533Z,16.40
2023-04-11T07:45:49.232Z,16.80
2023-04-11T07:48:35.023Z,17.00
2023-04-11T07:51:20.606Z,17.20
2023-04-11T07:54:06.286Z,17.30
2023-04-11T07:56:52.191Z,17.40
2023-04-11T07:59:37.830Z,17.50
2023-04-11T08:02:23.712Z,17.70
2023-04-11T08:05:12.352Z,17.70
2023-04-11T08:07:58.137Z,17.60
2023-04-11T08:10:43.862Z,17.60
2023-04-11T08:13:29.249Z,17.50
2023-04-11T08:16:15.460Z,17.60
2023-04-11T08:19:01.642Z,17.70
2023-04-11T08:21:50.209Z,17.80
2023-04-11T08:24:35.720Z,17.70
2023-04-11T08:27:21.751Z,18.00
2023-04-11T08:30:34.164Z,18.40
2023-04-11T08:33:20.427Z,18.70
2023-04-11T08:36:09.946Z,18.90
2023-04-11T08:38:56.966Z,18.70
2023-04-11T08:41:42.906Z,18.50
2023-04-11T08:44:28.677Z,18.30
2023-04-11T08:47:15.650Z,18.30
2023-04-11T08:50:01.661Z,18.40
2023-04-11T08:52:49.152Z,18.30
2023-04-11T08:55:34.771Z,18.30
2023-04-11T08:58:20.639Z,18.40
2023-04-11T09:01:25.066Z,18.70
2023-04-11T09:04:11.465Z,19.00
2023-04-11T09:07:00.475Z,18.80
2023-04-11T09:09:47.327Z,19.00
2023-04-11T09:12:32.979Z,19.20
2023-04-11T09:15:22.296Z,19.30
2023-04-11T09:18:08.116Z,19.40
2023-04-11T09:21:01.287Z,19.60
2023-04-11T09:23:46.586Z,19.70
2023-04-11T09:26:32.313Z,19.70
2023-04-11T09:29:38.185Z,19.70
2023-04-11T09:32:31.180Z,19.70
2023-04-11T09:35:20.926Z,19.40
2023-04-11T09:38:09.312Z,19.30
2023-04-11T09:40:56.473Z,19.30
2023-04-11T09:43:49.198Z,19.20
2023-04-11T09:46:35.145Z,19.30
2023-04-11T09:49:20.662Z,19.40
2023-04-11T09:52:06.581Z,19.40
2023-04-11T09:54:52.571Z,19.40
2023-04-11T09:57:46.002Z,19.40
2023-04-11T10:00:32.624Z,19.50
2023-04-11T10:03:20.430Z,19.60
2023-04-11T10:06:12.454Z,19.40
2023-04-11T10:09:08.606Z,19.40
2023-04-11T10:11:54.335Z,19.50
2023-04-11T10:14:41.934Z,19.70
2023-04-11T10:17:27.900Z,19.70
2023-04-11T10:20:31.896Z,19.70
2023-04-11T10:23:17.775Z,19.80
2023-04-11T10:26:08.472Z,19.90
2023-04-11T10:28:54.017Z,19.90
2023-04-11T10:31:59.753Z,20.00
2023-04-11T10:34:51.904Z,20.10
2023-04-11T10:37:37.772Z,20.10
2023-04-11T10:40:25.214Z,20.20
2023-04-11T10:43:21.411Z,19.90
2023-04-11T10:46:39.461Z,20.00
2023-04-11T10:49:32.220Z,20.10
2023-04-11T10:52:18.258Z,20.20
2023-04-11T10:55:20.035Z,20.30
2023-04-11T10:58:09.470Z,20.40
2023-04-11T11:01:01.123Z,20.40
2023-04-11T11:03:53.725Z,20.30
2023-04-11T11:06:47.395Z,20.30
2023-04-11T11:09:40.474Z,20.20
2023-04-11T11:12:26.188Z,20.20
2023-04-11T11:15:15.142Z,20.20
2023-04-11T11:18:00.808Z,20.00
2023-04-11T11:20:46.582Z,19.30
2023-04-11T11:23:33.521Z,19.20
2023-04-11T11:26:20.315Z,19.20
2023-04-11T11:29:06.289Z,19.30
2023-04-11T11:34:38.857Z,19.60
2023-04-11T11:37:24.536Z,19.80
2023-04-11T11:40:13.506Z,19.90
2023-04-11T11:42:59.485Z,20.00
2023-04-11T11:45:45.536Z,19.90
2023-04-11T11:48:31.598Z,20.00
2023-04-11T11:51:17.255Z,20.10
2023-04-11T11:54:08.710Z,20.30
2023-04-11T11:56:54.602Z,20.10
2023-04-11T11:59:40.141Z,20.00
2023-04-11T12:02:26.833Z,20.10
2023-04-11T12:05:12.607Z,19.90
2023-04-11T12:07:59.925Z,20.00
2023-04-11T12:10:49.459Z,20.10
2023-04-11T12:13:36.402Z,20.20
2023-04-11T12:16:23.334Z,20.30
2023-04-11T12:19:08.950Z,20.40
2023-04-11T12:21:54.735Z,20.50
2023-04-11T12:24:40.498Z,20.60
2023-04-11T12:27:26.198Z,20.40
2023-04-11T12:30:12.452Z,20.40
2023-04-11T12:32:58.096Z,20.50
2023-04-11T12:35:45.878Z,20.70
2023-04-11T12:38:32.415Z,20.90
2023-04-11T12:44:07.236Z,21.10
2023-04-11T12:46:52.920Z,21.20
2023-04-11T12:49:38.646Z,21.10
2023-04-11T12:52:25.421Z,21.00
2023-04-11T12:55:11.210Z,20.90
2023-04-11T12:57:56.930Z,21.00
2023-04-11T13:00:42.739Z,21.10
2023-04-11T13:03:29.406Z,21.20
2023-04-11T13:06:16.959Z,21.20
2023-04-11T13:09:03.040Z,21.30
2023-04-11T13:11:48.863Z,21.30
2023-04-11T13:14:36.454Z,21.50
2023-04-11T13:17:22.086Z,21.60
2023-04-11T13:20:10.327Z,21.60
2023-04-11T13:22:56.418Z,21.50
2023-04-11T13:25:41.821Z,21.30
2023-04-11T13:28:28.066Z,21.40
2023-04-11T13:31:14.131Z,21.40
2023-04-11T13:34:00.314Z,21.30
2023-04-11T13:36:46.390Z,21.20
2023-04-11T13:39:32.219Z,21.20
2023-04-11T13:42:17.792Z,21.20
2023-04-11T13:45:04.649Z,21.10
2023-04-11T13:47:50.395Z,21.20
2023-04-11T13:50:35.880Z,21.40
2023-04-11T13:53:21.588Z,21.50
2023-04-11T13:56:07.803Z,21.60
2023-04-11T13:58:53.552Z,21.70
2023-04-11T14:01:39.631Z,21.70
2023-04-11T14:04:25.315Z,21.70
2023-04-11T14:07:10.876Z,21.60
2023-04-11T14:09:56.386Z,21.60
2023-04-11T14:12:42.313Z,21.60
2023-04-11T14:15:27.683Z,21.60
2023-04-11T14:18:13.488Z,21.50
2023-04-11T14:21:01.225Z,21.40
2023-04-11T14:23:47.241Z,21.30
2023-04-11T14:26:32.693Z,21.30
2023-04-11T14:29:20.327Z,21.30
2023-04-11T14:32:07.249Z,21.40
2023-04-11T14:34:53.806Z,21.40
2023-04-11T14:37:39.432Z,21.40
2023-04-11T14:41:01.369Z,21.30
2023-04-11T14:44:22.173Z,21.30
2023-04-11T14:47:10.858Z,21.30
2023-04-11T14:49:58.418Z,21.30
2023-04-11T14:52:49.036Z,21.30
2023-04-11T14:55:38.171Z,21.30
2023-04-11T14:58:24.102Z,21.30
2023-04-11T15:01:10.272Z,21.40
2023-04-11T15:03:56.747Z,21.30
2023-04-11T15:06:42.274Z,21.30
2023-04-11T15:09:28.140Z,21.30
2023-04-11T15:12:13.780Z,21.40
2023-04-11T15:14:59.291Z,21.30
2023-04-11T15:17:46.588Z,21.30
2023-04-11T15:20:32.237Z,21.30
2023-04-11T15:23:18.354Z,21.30
2023-04-11T15:26:04.216Z,21.20
2023-04-11T15:28:49.482Z,21.20
2023-04-11T15:31:37.882Z,21.10
2023-04-11T15:34:24.941Z,21.10
2023-04-11T15:37:13.176Z,21.00
2023-04-11T15:39:59.834Z,21.00
2023-04-11T15:42:45.334Z,21.00
2023-04-11T15:45:30.934Z,21.00
2023-04-11T15:48:16.903Z,21.00
2023-04-11T15:51:08.567Z,20.90
2023-04-11T15:53:54.696Z,20.90
2023-04-11T15:56:40.344Z,20.80
2023-04-11T15:59:26.189Z,20.90
2023-04-11T16:02:12.070Z,20.80
2023-04-11T16:04:58.608Z,20.80
2023-04-11T16:07:44.637Z,20.70
2023-04-11T16:10:30.377Z,20.70
2023-04-11T16:13:15.913Z,20.60
2023-04-11T16:16:01.392Z,20.50
2023-04-11T16:18:46.883Z,20.60
2023-04-11T16:21:32.728Z,20.60
2023-04-11T16:24:19.052Z,20.50
2023-04-11T16:27:04.587Z,20.50
2023-04-11T16:29:51.085Z,20.50
2023-04-11T16:32:36.859Z,20.50
2023-04-11T16:35:22.525Z,20.40
2023-04-11T16:38:08.418Z,20.30
2023-04-11T16:40:54.146Z,20.30
2023-04-11T16:43:40.086Z,20.30
2023-04-11T16:46:25.852Z,20.10
2023-04-11T16:49:11.574Z,20.00
2023-04-11T16:51:57.142Z,19.90
2023-04-11T16:54:42.836Z,19.90
2023-04-11T16:57:28.605Z,19.80
2023-04-11T17:00:20.010Z,19.70
2023-04-11T17:03:05.852Z,19.60
2023-04-11T17:05:52.109Z,19.60
2023-04-11T17:08:37.673Z,19.50
2023-04-11T17:11:26.304Z,19.30
2023-04-11T17:14:11.806Z,19.40
2023-04-11T17:16:57.378Z,19.20
2023-04-11T17:19:42.977Z,19.10
2023-04-11T17:22:28.724Z,19.10
2023-04-11T17:25:14.414Z,19.00
2023-04-11T17:28:00.723Z,18.90
2023-04-11T17:30:52.753Z,18.80
2023-04-11T17:33:39.690Z,18.70
2023-04-11T17:36:25.501Z,18.60
2023-04-11T17:39:17.127Z,18.50
2023-04-11T17:42:02.900Z,18.50
2023-04-11T17:44:48.522Z,18.40
2023-04-11T17:47:34.349Z,18.30
2023-04-11T17:50:20.189Z,18.20
2023-04-11T17:53:05.522Z,18.10
2023-04-11T17:55:52.039Z,18.10
2023-04-11T17:58:40.195Z,18.00
2023-04-11T18:01:32.130Z,17.90
2023-04-11T18:04:17.857Z,17.80
2023-04-11T18:07:03.478Z,17.80
2023-04-11T18:09:49.370Z,17.70
2023-04-11T18:12:34.892Z,17.70
2023-04-11T18:15:24.552Z,17.60
2023-04-11T18:18:11.131Z,17.60
2023-04-11T18:21:02.114Z,17.50
2023-04-11T18:23:48.011Z,17.50
2023-04-11T18:26:33.794Z,17.40
2023-04-11T18:29:19.335Z,17.40
2023-04-11T18:32:04.998Z,17.30
2023-04-11T18:34:50.779Z,17.30
2023-04-11T18:37:43.581Z,17.30
2023-04-11T18:40:29.798Z,17.30
2023-04-11T18:43:15.458Z,17.20
2023-04-11T18:46:01.308Z,17.10
2023-04-11T18:48:47.128Z,17.10
2023-04-11T18:51:34.393Z,17.00
2023-04-11T18:54:21.038Z,16.90
2023-04-11T18:57:07.282Z,16.90
2023-04-11T18:59:55.570Z,16.80
2023-04-11T19:02:50.614Z,16.80
2023-04-11T19:05:37.871Z,16.80
2023-04-11T19:08:24.740Z,16.70
2023-04-11T19:11:10.789Z,16.70
2023-04-11T19:14:00.116Z,16.70
2023-04-11T19:16:54.489Z,16.60
2023-04-11T19:19:41.410Z,16.60
2023-04-11T19:22:47.115Z,16.60
2023-04-11T19:25:36.193Z,16.70
2023-04-11T19:28:26.742Z,16.60
2023-04-11T19:31:21.206Z,16.60
2023-04-11T19:34:08.460Z,16.50
2023-04-11T19:37:04.403Z,16.40
2023-04-11T19:39:58.590Z,16.40
2023-04-11T19:42:44.332Z,16.30
2023-04-11T19:45:31.754Z,16.30
2023-04-11T19:48:18.210Z,16.20
2023-04-11T19:51:04.021Z,16.20
2023-04-11T19:53:53.551Z,16.10
2023-04-11T19:56:44.336Z,16.10
2023-04-11T19:59:30.286Z,16.10
2023-04-11T20:02:15.933Z,16.00
2023-04-11T20:05:02.204Z,16.00
2023-04-11T20:07:48.220Z,16.00
2023-04-11T20:10:38.990Z,16.00
2023-04-11T20:13:24.611Z,15.90
2023-04-11T20:16:11.628Z,15.90
2023-04-11T20:18:57.422Z,15.80
2023-04-11T20:21:43.289Z,15.80
2023-04-11T20:24:29.165Z,15.80
2023-04-11T20:27:15.081Z,15.80
2023-04-11T20:30:01.859Z,15.70
2023-04-11T20:32:47.463Z,15.70
2023-04-11T20:35:34.356Z,15.70
2023-04-11T20:38:20.864Z,15.60
2023-04-11T20:41:06.405Z,15.60
2023-04-11T20:43:52.407Z,15.60
2023-04-11T20:46:40.003Z,15.60
2023-04-11T20:49:28.118Z,15.50
2023-04-11T20:52:13.964Z,15.50
2023-04-11T20:55:00.293Z,15.40
2023-04-11T20:57:46.028Z,15.40
2023-04-11T21:00:31.723Z,15.40
2023-04-11T21:03:17.561Z,15.40
2023-04-11T21:06:04.527Z,15.30
2023-04-11T21:08:49.933Z,15.30
2023-04-11T21:11:35.707Z,15.20
2023-04-11T21:14:21.730Z,15.20
2023-04-11T21:17:08.005Z,15.20
2023-04-11T21:19:53.490Z,15.10
2023-04-11T21:22:40.282Z,15.10
2023-04-11T21:25:26.336Z,15.10
2023-04-11T21:28:11.863Z,15.00
2023-04-11T21:30:57.797Z,15.00
2023-04-11T21:33:45.320Z,14.90
2023-04-11T21:36:31.710Z,14.80
2023-04-11T21:39:17.407Z,14.80
2023-04-11T21:42:02.902Z,14.80
2023-04-11T21:44:48.464Z,14.80
2023-04-11T21:47:34.729Z,14.80
2023-04-11T21:50:20.695Z,14.70
2023-04-11T21:53:06.406Z,14.70
2023-04-11T21:55:52.014Z,14.70
2023-04-11T21:58:37.950Z,14.60
2023-04-11T22:01:24.286Z,14.50
2023-04-11T22:04:13.117Z,14.40
2023-04-11T22:06:58.587Z,14.30
2023-04-11T22:09:47.135Z,14.20
2023-04-11T22:12:32.804Z,14.20
2023-04-11T22:15:18.608Z,14.10
2023-04-11T22:18:04.595Z,14.00
2023-04-11T22:20:50.803Z,13.90
2023-04-11T22:23:36.282Z,13.90
2023-04-11T22:26:26.490Z,13.80
2023-04-11T22:29:13.967Z,13.80
2023-04-11T22:32:00.593Z,13.80
2023-04-11T22:34:46.634Z,13.70
2023-04-11T22:37:32.169Z,13.80
2023-04-11T22:40:22.245Z,13.70
2023-04-11T22:43:08.142Z,13.70
2023-04-11T22:45:54.088Z,13.70
2023-04-11T22:48:42.020Z,13.60
2023-04-11T22:51:30.137Z,13.50
2023-04-11T22:54:15.794Z,13.50
2023-04-11T22:57:01.621Z,13.40
2023-04-11T22:59:47.361Z,13.40
2023-04-11T23:02:33.602Z,13.40
2023-04-11T23:05:20.893Z,13.40
2023-04-11T23:08:10.107Z,13.30
2023-04-11T23:10:55.547Z,13.20
2023-04-11T23:13:41.246Z,13.20
2023-04-11T23:16:27.640Z,13.10
2023-04-11T23:19:13.527Z,13.10
2023-04-11T23:21:59.544Z,13.10
2023-04-11T23:24:45.552Z,13.10
2023-04-11T23:27:31.293Z,13.10
2023-04-11T23:30:17.686Z,13.10
2023-04-11T23:33:05.969Z,13.10
2023-04-11T23:35:52.224Z,13.20
2023-04-11T23:38:37.895Z,13.10
2023-04-11T23:41:24.140Z,13.20
2023-04-11T23:44:09.563Z,13.10
2023-04-11T23:46:55.397Z,13.10
2023-04-11T23:49:41.403Z,13.10
2023-04-11T23:52:26.755Z,13.10
2023-04-11T23:55:12.752Z,13.10
2023-04-11T23:57:58.363Z,13.20
